YV2594 SVCN-SVUX

Flight info

Callsign YV2594
Flight time N/A
Altitude 5500
Route DCT
Aircraft C210/L-SDC/C

Departure

Time 2026-04-15 18:57
Airport Canaima Airport (SVCN)

Arrival

Time N/A
Airport SVUX
Time Latitude Longitude Altitude Speed Heading
2026-04-15 18:50 6.24115 -62.85557 1302 ft 0 kts 174°
2026-04-15 18:54 6.24110 -62.85557 1302 ft 4 kts 205°
2026-04-15 18:54 6.24125 -62.85589 1302 ft 3 kts 285°
2026-04-15 18:55 6.24106 -62.85593 1303 ft 4 kts 176°
2026-04-15 18:55 6.24095 -62.85592 1303 ft 0 kts 173°
2026-04-15 18:55 6.24089 -62.85592 1303 ft 8 kts 174°
2026-04-15 18:56 6.23898 -62.85570 1312 ft 46 kts 173°
2026-04-15 18:56 6.23467 -62.85520 1324 ft 77 kts 173°
2026-04-15 18:56 6.22868 -62.85451 1355 ft 92 kts 174°
2026-04-15 18:56 6.22221 -62.85379 1442 ft 94 kts 173°
2026-04-15 18:57 6.21541 -62.85306 1558 ft 103 kts 174°
2026-04-15 18:57 6.20816 -62.85221 1708 ft 109 kts 174°
2026-04-15 18:57 6.20028 -62.85138 1832 ft 116 kts 171°
2026-04-15 18:57 6.19253 -62.85011 2074 ft 115 kts 169°
2026-04-15 18:58 6.18372 -62.84927 2084 ft 134 kts 175°
2026-04-15 18:58 6.17423 -62.84852 2238 ft 138 kts 174°
2026-04-15 18:58 6.16466 -62.84774 2410 ft 138 kts 174°
2026-04-15 18:58 6.15492 -62.84696 2580 ft 142 kts 174°
2026-04-15 18:59 6.14519 -62.84602 2776 ft 138 kts 168°
2026-04-15 18:59 6.13583 -62.84375 2975 ft 140 kts 165°
2026-04-15 18:59 6.12638 -62.84128 3177 ft 141 kts 161°
2026-04-15 18:59 6.11741 -62.83742 3375 ft 141 kts 152°
2026-04-15 19:00 6.10858 -62.83314 3571 ft 140 kts 153°
2026-04-15 19:00 6.09981 -62.82892 3779 ft 139 kts 152°
2026-04-15 19:00 6.09112 -62.82461 3972 ft 139 kts 149°
2026-04-15 19:00 6.08275 -62.81967 4170 ft 139 kts 147°
2026-04-15 19:01 6.07444 -62.81470 4368 ft 139 kts 146°
2026-04-15 19:01 6.06638 -62.80948 4567 ft 137 kts 144°
2026-04-15 19:01 6.05855 -62.80419 4751 ft 133 kts 144°
2026-04-15 19:01 6.05089 -62.79898 4944 ft 132 kts 143°
2026-04-15 19:02 6.04327 -62.79378 5136 ft 133 kts 143°
2026-04-15 19:02 6.03573 -62.78864 5331 ft 132 kts 143°
2026-04-15 19:02 6.02809 -62.78341 5499 ft 135 kts 143°
2026-04-15 19:02 6.02002 -62.77786 5513 ft 144 kts 143°
2026-04-15 19:03 6.01176 -62.77180 5510 ft 149 kts 142°
2026-04-15 19:03 6.00331 -62.76552 5514 ft 153 kts 142°
2026-04-15 19:03 5.99464 -62.75905 5510 ft 157 kts 142°
2026-04-15 19:03 5.98580 -62.75242 5511 ft 158 kts 141°
2026-04-15 19:04 5.97698 -62.74581 5508 ft 158 kts 142°
2026-04-15 19:04 5.96818 -62.73921 5507 ft 158 kts 141°
2026-04-15 19:04 5.95941 -62.73264 5508 ft 157 kts 142°
2026-04-15 19:04 5.95057 -62.72622 5510 ft 158 kts 142°
2026-04-15 19:05 5.94150 -62.71970 5504 ft 162 kts 143°
2026-04-15 19:05 5.93236 -62.71309 5506 ft 161 kts 142°
2026-04-15 19:05 5.92335 -62.70649 5506 ft 159 kts 142°
2026-04-15 19:05 5.91440 -62.69993 5506 ft 159 kts 142°
2026-04-15 19:06 5.90540 -62.69332 5489 ft 161 kts 142°
2026-04-15 19:06 5.89650 -62.68676 5492 ft 161 kts 142°
2026-04-15 19:06 5.88743 -62.68011 5484 ft 164 kts 142°
2026-04-15 19:06 5.87824 -62.67353 5493 ft 161 kts 143°
2026-04-15 19:07 5.86917 -62.66705 5491 ft 159 kts 143°
2026-04-15 19:07 5.86015 -62.66061 5489 ft 159 kts 143°
2026-04-15 19:07 5.85115 -62.65429 5492 ft 157 kts 143°
2026-04-15 19:07 5.84218 -62.64794 5493 ft 157 kts 143°
2026-04-15 19:08 5.83321 -62.64165 5489 ft 157 kts 144°
2026-04-15 19:08 5.82432 -62.63533 5489 ft 156 kts 143°
2026-04-15 19:08 5.81565 -62.62913 5491 ft 154 kts 143°
2026-04-15 19:08 5.80680 -62.62286 5490 ft 154 kts 143°
2026-04-15 19:09 5.79822 -62.61679 5491 ft 153 kts 144°
2026-04-15 19:09 5.78951 -62.61054 5490 ft 154 kts 143°
2026-04-15 19:09 5.78081 -62.60430 5491 ft 153 kts 143°
2026-04-15 19:09 5.77215 -62.59803 5491 ft 154 kts 143°
2026-04-15 19:10 5.76331 -62.59161 5407 ft 160 kts 143°
2026-04-15 19:10 5.75414 -62.58505 5295 ft 164 kts 144°
2026-04-15 19:10 5.74474 -62.57830 5188 ft 168 kts 144°
2026-04-15 19:10 5.73511 -62.57134 5082 ft 173 kts 144°
2026-04-15 19:11 5.72526 -62.56419 4964 ft 175 kts 143°
2026-04-15 19:11 5.71539 -62.55708 4847 ft 174 kts 143°
2026-04-15 19:11 5.70549 -62.55003 4732 ft 175 kts 144°
2026-04-15 19:11 5.69557 -62.54289 4604 ft 175 kts 143°
2026-04-15 19:12 5.68899 -62.53811 4528 ft 177 kts 143°
2026-04-15 19:12 5.67899 -62.53088 4403 ft 177 kts 143°
2026-04-15 19:12 5.66906 -62.52368 4277 ft 176 kts 143°
2026-04-15 19:12 5.65916 -62.51648 4154 ft 176 kts 143°
2026-04-15 19:13 5.64604 -62.50693 3988 ft 175 kts 143°
2026-04-15 19:13 5.63622 -62.49981 3860 ft 174 kts 143°
2026-04-15 19:13 5.62960 -62.49500 3775 ft 174 kts 143°
2026-04-15 19:13 5.62268 -62.48982 3654 ft 40 kts 116°
2026-04-15 19:14 5.62258 -62.48973 3578 ft 0 kts 308°
2026-04-15 19:14 5.62258 -62.48972 3585 ft 0 kts 308°